sensor_id;sensor_type;location;lat;lon;timestamp;P1;durP1;ratioP1;P2;durP2;ratioP2
11761;SDS011;5938;47.098;15.474;2022-10-31T00:01:33;11.50;;;8.23;;
11761;SDS011;5938;47.098;15.474;2022-10-31T00:05:46;11.60;;;8.90;;
11761;SDS011;5938;47.098;15.474;2022-10-31T00:09:53;10.23;;;7.20;;
11761;SDS011;5938;47.098;15.474;2022-10-31T00:13:56;11.60;;;8.67;;
11761;SDS011;5938;47.098;15.474;2022-10-31T00:18:00;11.63;;;7.90;;
11761;SDS011;5938;47.098;15.474;2022-10-31T00:22:04;14.50;;;7.63;;
11761;SDS011;5938;47.098;15.474;2022-10-31T00:26:09;12.00;;;8.37;;
11761;SDS011;5938;47.098;15.474;2022-10-31T00:30:13;10.67;;;8.37;;
11761;SDS011;5938;47.098;15.474;2022-10-31T00:34:17;16.87;;;7.90;;
11761;SDS011;5938;47.098;15.474;2022-10-31T00:38:20;11.60;;;8.00;;
11761;SDS011;5938;47.098;15.474;2022-10-31T00:42:25;9.70;;;6.43;;
11761;SDS011;5938;47.098;15.474;2022-10-31T00:46:29;14.73;;;7.13;;
11761;SDS011;5938;47.098;15.474;2022-10-31T00:50:32;12.67;;;8.27;;
11761;SDS011;5938;47.098;15.474;2022-10-31T00:54:36;9.50;;;7.10;;
11761;SDS011;5938;47.098;15.474;2022-10-31T00:58:41;12.80;;;7.93;;
11761;SDS011;5938;47.098;15.474;2022-10-31T01:02:45;15.40;;;7.80;;
11761;SDS011;5938;47.098;15.474;2022-10-31T01:06:49;11.83;;;6.63;;
11761;SDS011;5938;47.098;15.474;2022-10-31T01:10:59;10.90;;;7.60;;
11761;SDS011;5938;47.098;15.474;2022-10-31T01:15:12;10.20;;;6.80;;
11761;SDS011;5938;47.098;15.474;2022-10-31T01:19:17;9.70;;;7.47;;
11761;SDS011;5938;47.098;15.474;2022-10-31T01:23:21;15.30;;;8.20;;
11761;SDS011;5938;47.098;15.474;2022-10-31T01:27:26;7.23;;;6.53;;
11761;SDS011;5938;47.098;15.474;2022-10-31T01:31:32;12.00;;;7.10;;
11761;SDS011;5938;47.098;15.474;2022-10-31T01:35:37;9.93;;;6.80;;
11761;SDS011;5938;47.098;15.474;2022-10-31T01:39:52;10.27;;;7.87;;
11761;SDS011;5938;47.098;15.474;2022-10-31T01:43:56;10.00;;;8.00;;
11761;SDS011;5938;47.098;15.474;2022-10-31T01:48:02;12.47;;;9.07;;
11761;SDS011;5938;47.098;15.474;2022-10-31T01:52:07;10.47;;;6.50;;
11761;SDS011;5938;47.098;15.474;2022-10-31T01:56:15;13.00;;;6.83;;
11761;SDS011;5938;47.098;15.474;2022-10-31T02:00:20;11.03;;;7.97;;
11761;SDS011;5938;47.098;15.474;2022-10-31T02:04:27;12.13;;;6.90;;
11761;SDS011;5938;47.098;15.474;2022-10-31T02:08:33;8.37;;;6.27;;
11761;SDS011;5938;47.098;15.474;2022-10-31T02:12:39;9.70;;;6.90;;
11761;SDS011;5938;47.098;15.474;2022-10-31T02:16:44;11.70;;;6.90;;
11761;SDS011;5938;47.098;15.474;2022-10-31T02:20:50;8.27;;;6.10;;
11761;SDS011;5938;47.098;15.474;2022-10-31T02:25:09;12.27;;;7.10;;
11761;SDS011;5938;47.098;15.474;2022-10-31T02:29:43;7.53;;;5.87;;
11761;SDS011;5938;47.098;15.474;2022-10-31T02:34:17;20.17;;;7.60;;
11761;SDS011;5938;47.098;15.474;2022-10-31T02:38:26;9.43;;;6.17;;
11761;SDS011;5938;47.098;15.474;2022-10-31T02:42:42;12.70;;;7.90;;
11761;SDS011;5938;47.098;15.474;2022-10-31T02:46:53;11.60;;;7.43;;
11761;SDS011;5938;47.098;15.474;2022-10-31T02:51:03;9.70;;;6.63;;
11761;SDS011;5938;47.098;15.474;2022-10-31T02:55:39;8.33;;;6.83;;
11761;SDS011;5938;47.098;15.474;2022-10-31T02:59:50;10.40;;;7.03;;
11761;SDS011;5938;47.098;15.474;2022-10-31T03:03:59;8.53;;;6.00;;
11761;SDS011;5938;47.098;15.474;2022-10-31T03:08:16;9.83;;;6.90;;
11761;SDS011;5938;47.098;15.474;2022-10-31T03:12:26;11.23;;;6.33;;
11761;SDS011;5938;47.098;15.474;2022-10-31T03:16:34;11.83;;;6.33;;
11761;SDS011;5938;47.098;15.474;2022-10-31T03:20:50;9.30;;;6.47;;
11761;SDS011;5938;47.098;15.474;2022-10-31T03:25:01;13.37;;;7.00;;
11761;SDS011;5938;47.098;15.474;2022-10-31T03:29:08;13.17;;;6.67;;
11761;SDS011;5938;47.098;15.474;2022-10-31T03:33:15;14.03;;;7.10;;
11761;SDS011;5938;47.098;15.474;2022-10-31T03:37:20;14.03;;;7.60;;
11761;SDS011;5938;47.098;15.474;2022-10-31T03:41:27;11.00;;;7.40;;
11761;SDS011;5938;47.098;15.474;2022-10-31T03:45:35;14.73;;;8.67;;
11761;SDS011;5938;47.098;15.474;2022-10-31T03:49:43;11.03;;;6.40;;
11761;SDS011;5938;47.098;15.474;2022-10-31T03:53:49;21.07;;;6.43;;
11761;SDS011;5938;47.098;15.474;2022-10-31T03:58:02;9.33;;;7.00;;
11761;SDS011;5938;47.098;15.474;2022-10-31T04:02:10;10.10;;;6.57;;
11761;SDS011;5938;47.098;15.474;2022-10-31T04:06:19;8.80;;;6.23;;
11761;SDS011;5938;47.098;15.474;2022-10-31T04:10:24;8.70;;;6.67;;
11761;SDS011;5938;47.098;15.474;2022-10-31T04:14:35;13.73;;;7.47;;
11761;SDS011;5938;47.098;15.474;2022-10-31T04:18:42;12.07;;;6.57;;
11761;SDS011;5938;47.098;15.474;2022-10-31T04:22:46;9.80;;;6.90;;
11761;SDS011;5938;47.098;15.474;2022-10-31T04:26:49;12.40;;;6.10;;
11761;SDS011;5938;47.098;15.474;2022-10-31T04:30:54;8.13;;;5.53;;
11761;SDS011;5938;47.098;15.474;2022-10-31T04:34:58;13.40;;;7.00;;
11761;SDS011;5938;47.098;15.474;2022-10-31T04:39:01;11.43;;;7.40;;
11761;SDS011;5938;47.098;15.474;2022-10-31T04:43:05;10.53;;;7.50;;
11761;SDS011;5938;47.098;15.474;2022-10-31T04:47:10;12.70;;;7.00;;
11761;SDS011;5938;47.098;15.474;2022-10-31T04:51:14;6.90;;;5.93;;
11761;SDS011;5938;47.098;15.474;2022-10-31T04:55:19;8.80;;;6.87;;
11761;SDS011;5938;47.098;15.474;2022-10-31T04:59:22;11.30;;;7.00;;
11761;SDS011;5938;47.098;15.474;2022-10-31T05:03:28;13.20;;;6.70;;
11761;SDS011;5938;47.098;15.474;2022-10-31T05:07:31;8.40;;;5.83;;
11761;SDS011;5938;47.098;15.474;2022-10-31T05:11:35;10.93;;;6.80;;
11761;SDS011;5938;47.098;15.474;2022-10-31T05:15:39;10.30;;;7.10;;
11761;SDS011;5938;47.098;15.474;2022-10-31T05:19:43;12.00;;;7.77;;
11761;SDS011;5938;47.098;15.474;2022-10-31T05:23:47;13.37;;;8.57;;
11761;SDS011;5938;47.098;15.474;2022-10-31T05:27:51;13.60;;;7.60;;
11761;SDS011;5938;47.098;15.474;2022-10-31T05:31:55;9.50;;;6.40;;
11761;SDS011;5938;47.098;15.474;2022-10-31T05:36:00;7.87;;;6.57;;
11761;SDS011;5938;47.098;15.474;2022-10-31T05:40:04;11.70;;;8.40;;
11761;SDS011;5938;47.098;15.474;2022-10-31T05:44:12;15.13;;;8.03;;
11761;SDS011;5938;47.098;15.474;2022-10-31T05:48:16;8.90;;;7.10;;
11761;SDS011;5938;47.098;15.474;2022-10-31T05:52:21;18.47;;;8.50;;
11761;SDS011;5938;47.098;15.474;2022-10-31T05:56:25;8.27;;;7.37;;
11761;SDS011;5938;47.098;15.474;2022-10-31T06:00:29;13.53;;;9.57;;
11761;SDS011;5938;47.098;15.474;2022-10-31T06:04:35;14.77;;;7.30;;
11761;SDS011;5938;47.098;15.474;2022-10-31T06:08:41;11.10;;;8.57;;
11761;SDS011;5938;47.098;15.474;2022-10-31T06:12:45;9.50;;;7.43;;
11761;SDS011;5938;47.098;15.474;2022-10-31T06:16:49;14.20;;;8.47;;
11761;SDS011;5938;47.098;15.474;2022-10-31T06:20:52;11.03;;;7.93;;
11761;SDS011;5938;47.098;15.474;2022-10-31T06:24:57;8.97;;;7.80;;
11761;SDS011;5938;47.098;15.474;2022-10-31T06:29:01;13.20;;;8.90;;
11761;SDS011;5938;47.098;15.474;2022-10-31T06:33:05;11.80;;;8.10;;
11761;SDS011;5938;47.098;15.474;2022-10-31T06:37:09;12.00;;;9.13;;
11761;SDS011;5938;47.098;15.474;2022-10-31T06:41:15;15.40;;;8.87;;
11761;SDS011;5938;47.098;15.474;2022-10-31T06:45:18;11.00;;;7.40;;
11761;SDS011;5938;47.098;15.474;2022-10-31T06:49:22;16.40;;;10.10;;
11761;SDS011;5938;47.098;15.474;2022-10-31T06:53:26;14.60;;;10.30;;
11761;SDS011;5938;47.098;15.474;2022-10-31T06:57:32;14.27;;;9.50;;
11761;SDS011;5938;47.098;15.474;2022-10-31T07:01:35;12.60;;;9.80;;
11761;SDS011;5938;47.098;15.474;2022-10-31T07:05:39;14.13;;;10.20;;
11761;SDS011;5938;47.098;15.474;2022-10-31T07:09:43;14.73;;;10.00;;
11761;SDS011;5938;47.098;15.474;2022-10-31T07:13:47;17.73;;;11.10;;
11761;SDS011;5938;47.098;15.474;2022-10-31T07:17:51;21.17;;;13.13;;
11761;SDS011;5938;47.098;15.474;2022-10-31T07:21:54;16.70;;;9.70;;
11761;SDS011;5938;47.098;15.474;2022-10-31T07:25:59;16.73;;;10.17;;
11761;SDS011;5938;47.098;15.474;2022-10-31T07:30:04;15.03;;;10.13;;
11761;SDS011;5938;47.098;15.474;2022-10-31T07:34:10;18.20;;;11.33;;
11761;SDS011;5938;47.098;15.474;2022-10-31T07:38:14;27.30;;;13.57;;
11761;SDS011;5938;47.098;15.474;2022-10-31T07:42:18;16.03;;;11.50;;
11761;SDS011;5938;47.098;15.474;2022-10-31T07:46:23;17.67;;;11.83;;
11761;SDS011;5938;47.098;15.474;2022-10-31T07:50:27;18.10;;;11.30;;
11761;SDS011;5938;47.098;15.474;2022-10-31T07:54:32;15.73;;;10.77;;
11761;SDS011;5938;47.098;15.474;2022-10-31T07:58:36;16.37;;;11.40;;
11761;SDS011;5938;47.098;15.474;2022-10-31T08:02:41;16.93;;;11.13;;
11761;SDS011;5938;47.098;15.474;2022-10-31T08:06:45;18.47;;;13.83;;
11761;SDS011;5938;47.098;15.474;2022-10-31T08:10:49;19.63;;;13.53;;
11761;SDS011;5938;47.098;15.474;2022-10-31T08:14:54;16.83;;;12.83;;
11761;SDS011;5938;47.098;15.474;2022-10-31T08:19:01;17.80;;;11.47;;
11761;SDS011;5938;47.098;15.474;2022-10-31T08:23:04;15.43;;;10.50;;
11761;SDS011;5938;47.098;15.474;2022-10-31T08:27:08;13.67;;;9.73;;
11761;SDS011;5938;47.098;15.474;2022-10-31T08:31:11;19.37;;;12.37;;
11761;SDS011;5938;47.098;15.474;2022-10-31T08:35:16;21.33;;;13.97;;
11761;SDS011;5938;47.098;15.474;2022-10-31T08:39:22;16.17;;;11.40;;
11761;SDS011;5938;47.098;15.474;2022-10-31T08:43:27;17.30;;;11.10;;
11761;SDS011;5938;47.098;15.474;2022-10-31T08:47:30;23.97;;;14.13;;
11761;SDS011;5938;47.098;15.474;2022-10-31T08:51:35;32.87;;;26.30;;
11761;SDS011;5938;47.098;15.474;2022-10-31T08:55:40;25.17;;;21.57;;
11761;SDS011;5938;47.098;15.474;2022-10-31T08:59:44;19.77;;;14.93;;
11761;SDS011;5938;47.098;15.474;2022-10-31T09:03:48;20.30;;;13.33;;
11761;SDS011;5938;47.098;15.474;2022-10-31T09:07:52;15.70;;;10.30;;
11761;SDS011;5938;47.098;15.474;2022-10-31T09:11:58;16.80;;;8.93;;
11761;SDS011;5938;47.098;15.474;2022-10-31T09:16:02;14.40;;;7.07;;
11761;SDS011;5938;47.098;15.474;2022-10-31T09:20:05;13.20;;;6.93;;
11761;SDS011;5938;47.098;15.474;2022-10-31T09:24:11;12.63;;;7.27;;
11761;SDS011;5938;47.098;15.474;2022-10-31T09:28:16;11.93;;;6.50;;
11761;SDS011;5938;47.098;15.474;2022-10-31T09:32:21;9.53;;;5.70;;
11761;SDS011;5938;47.098;15.474;2022-10-31T09:36:26;7.40;;;5.30;;
11761;SDS011;5938;47.098;15.474;2022-10-31T09:40:32;12.40;;;7.13;;
11761;SDS011;5938;47.098;15.474;2022-10-31T09:44:44;16.33;;;5.87;;
11761;SDS011;5938;47.098;15.474;2022-10-31T09:48:59;6.47;;;5.27;;
11761;SDS011;5938;47.098;15.474;2022-10-31T09:53:27;12.03;;;6.20;;
11761;SDS011;5938;47.098;15.474;2022-10-31T09:57:38;6.70;;;6.03;;
11761;SDS011;5938;47.098;15.474;2022-10-31T10:01:45;12.73;;;6.90;;
11761;SDS011;5938;47.098;15.474;2022-10-31T10:05:53;11.87;;;6.87;;
11761;SDS011;5938;47.098;15.474;2022-10-31T10:10:00;8.47;;;5.40;;
11761;SDS011;5938;47.098;15.474;2022-10-31T10:14:22;7.63;;;6.17;;
11761;SDS011;5938;47.098;15.474;2022-10-31T10:18:38;9.73;;;5.80;;
11761;SDS011;5938;47.098;15.474;2022-10-31T10:22:52;9.27;;;6.77;;
11761;SDS011;5938;47.098;15.474;2022-10-31T10:27:05;18.23;;;7.00;;
11761;SDS011;5938;47.098;15.474;2022-10-31T10:31:23;12.10;;;6.47;;
11761;SDS011;5938;47.098;15.474;2022-10-31T10:35:30;9.93;;;5.73;;
11761;SDS011;5938;47.098;15.474;2022-10-31T10:39:37;10.43;;;6.20;;
11761;SDS011;5938;47.098;15.474;2022-10-31T10:43:44;9.23;;;6.53;;
11761;SDS011;5938;47.098;15.474;2022-10-31T10:47:52;11.97;;;7.13;;
11761;SDS011;5938;47.098;15.474;2022-10-31T10:52:03;9.37;;;6.47;;
11761;SDS011;5938;47.098;15.474;2022-10-31T10:56:38;10.67;;;5.70;;
11761;SDS011;5938;47.098;15.474;2022-10-31T11:00:47;7.80;;;6.70;;
11761;SDS011;5938;47.098;15.474;2022-10-31T11:04:54;6.80;;;6.07;;
11761;SDS011;5938;47.098;15.474;2022-10-31T11:08:59;6.33;;;5.40;;
11761;SDS011;5938;47.098;15.474;2022-10-31T11:13:19;9.70;;;6.50;;
11761;SDS011;5938;47.098;15.474;2022-10-31T11:17:26;9.70;;;5.70;;
11761;SDS011;5938;47.098;15.474;2022-10-31T11:21:34;12.57;;;5.97;;
11761;SDS011;5938;47.098;15.474;2022-10-31T11:25:38;12.60;;;6.50;;
11761;SDS011;5938;47.098;15.474;2022-10-31T11:29:41;10.50;;;6.10;;
11761;SDS011;5938;47.098;15.474;2022-10-31T11:33:46;8.87;;;6.20;;
11761;SDS011;5938;47.098;15.474;2022-10-31T11:37:55;11.77;;;6.27;;
11761;SDS011;5938;47.098;15.474;2022-10-31T11:42:02;8.83;;;6.90;;
11761;SDS011;5938;47.098;15.474;2022-10-31T11:46:09;9.53;;;5.63;;
11761;SDS011;5938;47.098;15.474;2022-10-31T11:50:18;8.20;;;5.73;;
11761;SDS011;5938;47.098;15.474;2022-10-31T11:54:25;10.07;;;6.17;;
11761;SDS011;5938;47.098;15.474;2022-10-31T11:58:31;7.07;;;6.30;;
11761;SDS011;5938;47.098;15.474;2022-10-31T12:02:35;8.40;;;5.97;;
11761;SDS011;5938;47.098;15.474;2022-10-31T12:06:39;9.40;;;5.80;;
11761;SDS011;5938;47.098;15.474;2022-10-31T12:10:47;6.87;;;5.23;;
11761;SDS011;5938;47.098;15.474;2022-10-31T12:15:04;10.77;;;5.60;;
11761;SDS011;5938;47.098;15.474;2022-10-31T12:19:20;10.30;;;5.33;;
11761;SDS011;5938;47.098;15.474;2022-10-31T12:23:36;6.10;;;5.20;;
11761;SDS011;5938;47.098;15.474;2022-10-31T12:27:51;7.70;;;5.60;;
11761;SDS011;5938;47.098;15.474;2022-10-31T12:36:42;5.33;;;4.80;;
11761;SDS011;5938;47.098;15.474;2022-10-31T12:40:57;6.10;;;5.50;;
11761;SDS011;5938;47.098;15.474;2022-10-31T12:45:27;6.17;;;5.60;;
11761;SDS011;5938;47.098;15.474;2022-10-31T12:49:41;7.00;;;5.33;;
11761;SDS011;5938;47.098;15.474;2022-10-31T12:53:53;5.70;;;5.07;;
11761;SDS011;5938;47.098;15.474;2022-10-31T12:58:09;6.03;;;5.47;;
11761;SDS011;5938;47.098;15.474;2022-10-31T13:02:19;6.47;;;5.90;;
11761;SDS011;5938;47.098;15.474;2022-10-31T13:06:27;6.77;;;4.80;;
11761;SDS011;5938;47.098;15.474;2022-10-31T13:10:36;12.93;;;10.60;;
11761;SDS011;5938;47.098;15.474;2022-10-31T13:14:46;13.13;;;8.13;;
11761;SDS011;5938;47.098;15.474;2022-10-31T13:18:54;8.27;;;6.40;;
11761;SDS011;5938;47.098;15.474;2022-10-31T13:23:05;7.20;;;5.80;;
11761;SDS011;5938;47.098;15.474;2022-10-31T13:27:36;24.53;;;20.50;;
11761;SDS011;5938;47.098;15.474;2022-10-31T13:31:47;7.17;;;6.07;;
11761;SDS011;5938;47.098;15.474;2022-10-31T13:35:52;6.80;;;6.10;;
11761;SDS011;5938;47.098;15.474;2022-10-31T13:40:07;7.30;;;6.07;;
11761;SDS011;5938;47.098;15.474;2022-10-31T13:44:18;12.27;;;7.40;;
11761;SDS011;5938;47.098;15.474;2022-10-31T13:48:38;8.30;;;6.43;;
11761;SDS011;5938;47.098;15.474;2022-10-31T13:52:45;12.33;;;8.50;;
11761;SDS011;5938;47.098;15.474;2022-10-31T13:56:49;10.00;;;7.33;;
11761;SDS011;5938;47.098;15.474;2022-10-31T14:00:57;12.50;;;6.27;;
11761;SDS011;5938;47.098;15.474;2022-10-31T14:05:19;7.83;;;6.70;;
11761;SDS011;5938;47.098;15.474;2022-10-31T14:09:28;10.90;;;6.13;;
11761;SDS011;5938;47.098;15.474;2022-10-31T14:13:35;16.57;;;10.63;;
11761;SDS011;5938;47.098;15.474;2022-10-31T14:17:45;7.57;;;6.13;;
11761;SDS011;5938;47.098;15.474;2022-10-31T14:21:50;7.03;;;6.27;;
11761;SDS011;5938;47.098;15.474;2022-10-31T14:25:55;9.83;;;6.47;;
11761;SDS011;5938;47.098;15.474;2022-10-31T14:30:13;9.57;;;5.63;;
11761;SDS011;5938;47.098;15.474;2022-10-31T14:34:20;6.23;;;5.60;;
11761;SDS011;5938;47.098;15.474;2022-10-31T14:38:29;8.83;;;6.60;;
11761;SDS011;5938;47.098;15.474;2022-10-31T14:42:54;6.80;;;6.17;;
11761;SDS011;5938;47.098;15.474;2022-10-31T14:47:16;14.33;;;7.13;;
11761;SDS011;5938;47.098;15.474;2022-10-31T14:51:32;12.03;;;6.40;;
11761;SDS011;5938;47.098;15.474;2022-10-31T14:55:39;7.87;;;6.33;;
11761;SDS011;5938;47.098;15.474;2022-10-31T14:59:52;9.23;;;6.50;;
11761;SDS011;5938;47.098;15.474;2022-10-31T15:04:04;9.53;;;7.10;;
11761;SDS011;5938;47.098;15.474;2022-10-31T15:08:29;9.47;;;6.90;;
11761;SDS011;5938;47.098;15.474;2022-10-31T15:12:40;7.03;;;6.33;;
11761;SDS011;5938;47.098;15.474;2022-10-31T15:16:45;6.97;;;6.27;;
11761;SDS011;5938;47.098;15.474;2022-10-31T15:20:48;8.60;;;6.80;;
11761;SDS011;5938;47.098;15.474;2022-10-31T15:24:53;9.83;;;8.07;;
11761;SDS011;5938;47.098;15.474;2022-10-31T15:28:59;8.30;;;6.43;;
11761;SDS011;5938;47.098;15.474;2022-10-31T15:38:09;11.17;;;7.10;;
11761;SDS011;5938;47.098;15.474;2022-10-31T15:42:22;7.30;;;6.27;;
11761;SDS011;5938;47.098;15.474;2022-10-31T15:46:28;9.93;;;7.30;;
11761;SDS011;5938;47.098;15.474;2022-10-31T15:50:32;7.73;;;7.00;;
11761;SDS011;5938;47.098;15.474;2022-10-31T15:54:45;9.47;;;8.67;;
11761;SDS011;5938;47.098;15.474;2022-10-31T15:58:51;9.80;;;8.30;;
11761;SDS011;5938;47.098;15.474;2022-10-31T16:03:05;7.80;;;7.00;;
11761;SDS011;5938;47.098;15.474;2022-10-31T16:07:12;9.33;;;8.00;;
11761;SDS011;5938;47.098;15.474;2022-10-31T16:11:27;8.80;;;7.73;;
11761;SDS011;5938;47.098;15.474;2022-10-31T16:15:35;11.90;;;7.43;;
11761;SDS011;5938;47.098;15.474;2022-10-31T16:19:44;8.07;;;7.37;;
11761;SDS011;5938;47.098;15.474;2022-10-31T16:23:54;9.07;;;8.00;;
11761;SDS011;5938;47.098;15.474;2022-10-31T16:28:12;11.30;;;8.33;;
11761;SDS011;5938;47.098;15.474;2022-10-31T16:32:29;11.33;;;8.60;;
11761;SDS011;5938;47.098;15.474;2022-10-31T16:36:34;12.23;;;8.80;;
11761;SDS011;5938;47.098;15.474;2022-10-31T16:40:40;10.73;;;9.50;;
11761;SDS011;5938;47.098;15.474;2022-10-31T16:44:45;10.10;;;9.10;;
11761;SDS011;5938;47.098;15.474;2022-10-31T16:48:50;11.93;;;10.20;;
11761;SDS011;5938;47.098;15.474;2022-10-31T16:52:54;11.77;;;9.83;;
11761;SDS011;5938;47.098;15.474;2022-10-31T16:57:15;21.33;;;12.63;;
11761;SDS011;5938;47.098;15.474;2022-10-31T17:01:22;18.27;;;13.60;;
11761;SDS011;5938;47.098;15.474;2022-10-31T17:05:26;13.43;;;10.50;;
11761;SDS011;5938;47.098;15.474;2022-10-31T17:09:30;11.50;;;10.00;;
11761;SDS011;5938;47.098;15.474;2022-10-31T17:13:34;15.83;;;11.17;;
11761;SDS011;5938;47.098;15.474;2022-10-31T17:17:39;12.93;;;10.30;;
11761;SDS011;5938;47.098;15.474;2022-10-31T17:21:50;13.67;;;11.53;;
11761;SDS011;5938;47.098;15.474;2022-10-31T17:43:05;15.17;;;11.47;;
11761;SDS011;5938;47.098;15.474;2022-10-31T17:46:08;17.23;;;14.80;;
11761;SDS011;5938;47.098;15.474;2022-10-31T17:50:53;16.20;;;14.30;;
11761;SDS011;5938;47.098;15.474;2022-10-31T17:55:10;15.50;;;12.87;;
11761;SDS011;5938;47.098;15.474;2022-10-31T18:04:33;19.57;;;14.13;;
11761;SDS011;5938;47.098;15.474;2022-10-31T18:08:42;15.57;;;14.07;;
11761;SDS011;5938;47.098;15.474;2022-10-31T18:13:28;16.23;;;13.33;;
11761;SDS011;5938;47.098;15.474;2022-10-31T18:22:43;16.60;;;12.93;;
11761;SDS011;5938;47.098;15.474;2022-10-31T18:27:38;13.50;;;12.00;;
11761;SDS011;5938;47.098;15.474;2022-10-31T18:32:31;13.43;;;12.03;;
11761;SDS011;5938;47.098;15.474;2022-10-31T18:36:54;14.40;;;12.90;;
11761;SDS011;5938;47.098;15.474;2022-10-31T18:41:25;14.67;;;13.13;;
11761;SDS011;5938;47.098;15.474;2022-10-31T18:46:12;15.17;;;12.57;;
11761;SDS011;5938;47.098;15.474;2022-10-31T18:50:36;15.17;;;13.50;;
11761;SDS011;5938;47.098;15.474;2022-10-31T18:55:10;15.73;;;14.03;;
11761;SDS011;5938;47.098;15.474;2022-10-31T19:00:20;16.03;;;14.33;;
11761;SDS011;5938;47.098;15.474;2022-10-31T19:04:45;14.90;;;13.33;;
11761;SDS011;5938;47.098;15.474;2022-10-31T19:13:42;14.90;;;12.60;;
11761;SDS011;5938;47.098;15.474;2022-10-31T19:18:04;14.27;;;12.83;;
11761;SDS011;5938;47.098;15.474;2022-10-31T19:22:29;16.47;;;13.97;;
11761;SDS011;5938;47.098;15.474;2022-10-31T19:26:46;15.67;;;14.17;;
11761;SDS011;5938;47.098;15.474;2022-10-31T19:31:07;15.57;;;13.90;;
11761;SDS011;5938;47.098;15.474;2022-10-31T19:40:32;26.70;;;13.90;;
11761;SDS011;5938;47.098;15.474;2022-10-31T19:45:22;18.60;;;14.77;;
11761;SDS011;5938;47.098;15.474;2022-10-31T19:49:52;18.83;;;14.17;;
11761;SDS011;5938;47.098;15.474;2022-10-31T19:54:36;16.27;;;14.03;;
11761;SDS011;5938;47.098;15.474;2022-10-31T19:59:22;18.80;;;15.90;;
11761;SDS011;5938;47.098;15.474;2022-10-31T20:04:13;18.57;;;16.67;;
11761;SDS011;5938;47.098;15.474;2022-10-31T20:08:38;20.83;;;15.60;;
11761;SDS011;5938;47.098;15.474;2022-10-31T20:13:02;21.80;;;17.20;;
11761;SDS011;5938;47.098;15.474;2022-10-31T20:17:24;30.27;;;23.70;;
11761;SDS011;5938;47.098;15.474;2022-10-31T20:26:13;31.00;;;24.77;;
11761;SDS011;5938;47.098;15.474;2022-10-31T20:31:06;38.70;;;26.47;;
11761;SDS011;5938;47.098;15.474;2022-10-31T20:35:56;36.77;;;25.47;;
11761;SDS011;5938;47.098;15.474;2022-10-31T20:40:36;54.83;;;25.27;;
11761;SDS011;5938;47.098;15.474;2022-10-31T20:45:12;54.13;;;24.67;;
11761;SDS011;5938;47.098;15.474;2022-10-31T20:53:57;25.67;;;22.40;;
11761;SDS011;5938;47.098;15.474;2022-10-31T20:58:37;46.57;;;24.07;;
11761;SDS011;5938;47.098;15.474;2022-10-31T21:03:19;29.77;;;22.00;;
11761;SDS011;5938;47.098;15.474;2022-10-31T21:07:46;26.13;;;21.53;;
11761;SDS011;5938;47.098;15.474;2022-10-31T21:12:27;23.73;;;20.80;;
11761;SDS011;5938;47.098;15.474;2022-10-31T21:16:50;27.50;;;22.10;;
11761;SDS011;5938;47.098;15.474;2022-10-31T21:21:32;36.70;;;23.77;;
11761;SDS011;5938;47.098;15.474;2022-10-31T21:31:28;59.53;;;23.30;;
11761;SDS011;5938;47.098;15.474;2022-10-31T21:35:54;37.30;;;23.60;;
11761;SDS011;5938;47.098;15.474;2022-10-31T21:40:01;30.43;;;21.33;;
11761;SDS011;5938;47.098;15.474;2022-10-31T21:44:48;32.00;;;21.50;;
11761;SDS011;5938;47.098;15.474;2022-10-31T21:54:35;26.07;;;20.10;;
11761;SDS011;5938;47.098;15.474;2022-10-31T21:59:22;50.67;;;21.33;;
11761;SDS011;5938;47.098;15.474;2022-10-31T22:03:40;71.33;;;24.83;;
11761;SDS011;5938;47.098;15.474;2022-10-31T22:08:10;65.43;;;25.20;;
11761;SDS011;5938;47.098;15.474;2022-10-31T22:12:16;26.40;;;19.87;;
11761;SDS011;5938;47.098;15.474;2022-10-31T22:16:29;63.40;;;23.60;;
11761;SDS011;5938;47.098;15.474;2022-10-31T22:20:53;32.33;;;23.47;;
11761;SDS011;5938;47.098;15.474;2022-10-31T22:25:27;22.67;;;19.47;;
11761;SDS011;5938;47.098;15.474;2022-10-31T22:29:50;36.43;;;23.50;;
11761;SDS011;5938;47.098;15.474;2022-10-31T22:33:58;40.63;;;22.30;;
11761;SDS011;5938;47.098;15.474;2022-10-31T22:38:12;63.30;;;21.57;;
11761;SDS011;5938;47.098;15.474;2022-10-31T22:42:45;37.23;;;22.17;;
11761;SDS011;5938;47.098;15.474;2022-10-31T22:46:58;35.20;;;21.00;;
11761;SDS011;5938;47.098;15.474;2022-10-31T22:51:14;27.33;;;20.80;;
11761;SDS011;5938;47.098;15.474;2022-10-31T23:00:23;31.30;;;20.80;;
11761;SDS011;5938;47.098;15.474;2022-10-31T23:04:33;32.67;;;19.57;;
11761;SDS011;5938;47.098;15.474;2022-10-31T23:09:09;28.20;;;18.90;;
11761;SDS011;5938;47.098;15.474;2022-10-31T23:13:41;23.50;;;18.97;;
11761;SDS011;5938;47.098;15.474;2022-10-31T23:18:13;29.40;;;21.83;;
11761;SDS011;5938;47.098;15.474;2022-10-31T23:23:12;25.33;;;19.03;;
11761;SDS011;5938;47.098;15.474;2022-10-31T23:27:38;31.30;;;22.17;;
11761;SDS011;5938;47.098;15.474;2022-10-31T23:31:59;31.07;;;18.63;;
11761;SDS011;5938;47.098;15.474;2022-10-31T23:36:11;58.10;;;20.47;;
11761;SDS011;5938;47.098;15.474;2022-10-31T23:40:48;55.33;;;21.20;;
11761;SDS011;5938;47.098;15.474;2022-10-31T23:44:59;68.40;;;22.10;;
11761;SDS011;5938;47.098;15.474;2022-10-31T23:49:33;32.43;;;17.57;;
11761;SDS011;5938;47.098;15.474;2022-10-31T23:53:59;27.10;;;19.20;;
11761;SDS011;5938;47.098;15.474;2022-10-31T23:58:21;52.27;;;20.83;;
